Time;durP1;ratioP1;P1;durP2;ratioP2;P2;SDS_P1;SDS_P2;PMS_P1;PMS_P2;Temp;Humidity;BMP_temperature;BMP_pressure;BME280_temperature;BME280_humidity;BME280_pressure;Samples;Min_cycle;Max_cycle;Signal;HPM_P1;HPM_P2
2021/05/23 00:11:32;;;;;;;5.80;3.40;;;;;;;8.71;100.00;99606.80;712382;1202;113617;-74
2021/05/23 00:26:53;;;;;;;5.28;3.18;;;;;;;8.57;100.00;99610.64;712260;1202;115093;-74
2021/05/23 00:42:14;;;;;;;5.18;3.00;;;;;;;8.44;100.00;99616.11;712204;1203;113993;-74
2021/05/23 00:57:35;;;;;;;7.50;3.33;;;;;;;8.36;100.00;99623.83;712346;1203;115046;-74
2021/05/23 01:12:56;;;;;;;7.30;4.05;;;;;;;8.24;100.00;99620.52;712442;1205;114148;-74
2021/05/23 01:28:19;;;;;;;11.05;5.25;;;;;;;8.33;100.00;99616.27;712762;1202;113877;-73
2021/05/23 01:43:40;;;;;;;6.48;3.98;;;;;;;8.58;100.00;99633.22;712857;1203;113936;-73
2021/05/23 01:59:00;;;;;;;6.88;3.63;;;;;;;8.86;100.00;99648.21;712843;1179;113637;-73
2021/05/23 02:14:22;;;;;;;6.57;3.53;;;;;;;8.98;100.00;99653.13;712564;1179;113654;-74
2021/05/23 02:29:42;;;;;;;6.35;3.55;;;;;;;9.05;100.00;99666.47;712595;1202;114858;-74
2021/05/23 02:45:08;;;;;;;6.98;3.70;;;;;;;9.18;100.00;99665.36;712659;1202;113859;-74
2021/05/23 03:00:28;;;;;;;4.95;3.30;;;;;;;9.28;100.00;99668.78;712833;1202;114556;-73
2021/05/23 03:15:48;;;;;;;6.48;3.73;;;;;;;9.37;100.00;99680.17;712774;1206;114250;-74
2021/05/23 03:31:09;;;;;;;8.17;3.90;;;;;;;9.54;100.00;99691.70;712838;1203;114601;-74
2021/05/23 03:46:30;;;;;;;6.80;4.13;;;;;;;9.79;100.00;99701.55;713066;1202;114540;-74
2021/05/23 04:01:51;;;;;;;5.45;3.90;;;;;;;9.92;100.00;99716.09;712862;1187;113988;-74
2021/05/23 04:17:12;;;;;;;6.63;3.87;;;;;;;10.07;100.00;99732.16;712796;1203;114238;-74
2021/05/23 04:32:33;;;;;;;5.48;3.83;;;;;;;10.33;100.00;99740.16;714721;1202;115499;-74
2021/05/23 04:47:54;;;;;;;5.23;3.35;;;;;;;10.70;100.00;99741.88;712671;1196;114527;-74
2021/05/23 05:03:14;;;;;;;5.20;3.28;;;;;;;11.08;100.00;99734.67;715469;1168;115106;-74
2021/05/23 05:18:36;;;;;;;4.45;3.10;;;;;;;11.51;100.00;99744.49;712660;1203;114422;-76
2021/05/23 05:33:56;;;;;;;5.05;2.63;;;;;;;11.88;100.00;99759.19;712940;1203;116285;-74
2021/05/23 05:49:17;;;;;;;5.78;3.05;;;;;;;12.21;100.00;99777.77;712518;1203;114542;-74
2021/05/23 06:04:37;;;;;;;4.93;3.08;;;;;;;12.65;100.00;99785.45;712251;1202;114139;-76
2021/05/23 06:19:57;;;;;;;4.80;3.10;;;;;;;12.97;100.00;99789.13;712456;1205;115846;-75
2021/05/23 06:35:18;;;;;;;4.00;2.75;;;;;;;13.13;100.00;99806.74;712451;1205;113872;-76
2021/05/23 06:50:39;;;;;;;3.60;2.60;;;;;;;13.45;100.00;99816.51;712624;1179;113266;-75
2021/05/23 07:05:59;;;;;;;6.23;3.00;;;;;;;14.12;100.00;99830.39;712622;1205;113802;-75
2021/05/23 07:21:20;;;;;;;4.08;2.43;;;;;;;14.47;100.00;99852.86;713214;1180;114596;-74
2021/05/23 07:36:40;;;;;;;6.48;3.33;;;;;;;14.25;100.00;99888.75;712667;1205;115512;-74
2021/05/23 07:52:01;;;;;;;3.98;2.35;;;;;;;13.88;100.00;99915.66;712583;1205;114030;-75
2021/05/23 08:07:23;;;;;;;4.15;2.30;;;;;;;13.68;100.00;99913.34;712823;1180;114735;-74
2021/05/23 08:22:43;;;;;;;4.40;2.50;;;;;;;13.68;100.00;99937.06;712911;1202;115716;-73
2021/05/23 08:38:04;;;;;;;10.33;6.33;;;;;;;13.80;100.00;99946.32;712843;1202;115239;-74
2021/05/23 08:53:26;;;;;;;3.68;2.95;;;;;;;14.56;100.00;99943.41;713084;1177;114630;-73
2021/05/23 09:08:56;;;;;;;6.43;3.45;;;;;;;15.47;100.00;99970.25;712806;1202;115350;-74
2021/05/23 09:24:17;;;;;;;4.10;2.35;;;;;;;16.28;96.35;99972.45;712876;1203;114578;-74
2021/05/23 09:39:39;;;;;;;7.73;4.60;;;;;;;15.42;91.92;100003.50;713291;1178;113700;-73
2021/05/23 09:55:01;;;;;;;9.10;7.20;;;;;;;16.67;91.44;100005.02;712991;1178;114788;-74
2021/05/23 10:10:21;;;;;;;8.60;4.05;;;;;;;17.56;83.93;100016.53;713391;1206;114993;-74
2021/05/23 10:25:51;;;;;;;5.17;2.83;;;;;;;17.49;74.07;100020.96;713038;1203;114553;-73
2021/05/23 10:41:18;;;;;;;10.90;6.57;;;;;;;17.53;70.14;100009.78;713092;1178;114000;-73
2021/05/23 10:56:38;;;;;;;23.35;12.95;;;;;;;17.70;71.58;100020.97;713134;1202;114583;-72
2021/05/23 11:12:07;;;;;;;3.45;1.75;;;;;;;17.96;70.12;100039.02;713492;1202;115889;-76
2021/05/23 11:27:27;;;;;;;4.75;3.25;;;;;;;18.04;69.97;100051.34;712762;1195;113856;-72
2021/05/23 11:42:49;;;;;;;3.53;2.30;;;;;;;19.05;68.98;100052.09;717526;1177;114379;-73
2021/05/23 11:58:12;;;;;;;2.30;2.08;;;;;;;18.32;66.75;100063.00;728269;1202;115569;-74
2021/05/23 12:13:47;;;;;;;4.23;2.13;;;;;;;17.78;67.36;100068.59;712585;1202;113837;-73
2021/05/23 12:29:08;;;;;;;8.80;7.93;;;;;;;18.39;68.11;100070.02;712528;1202;115785;-72
2021/05/23 12:44:30;;;;;;;3.90;2.40;;;;;;;18.76;65.79;100062.72;712911;1205;115238;-74
2021/05/23 12:59:52;;;;;;;1.97;1.80;;;;;;;19.86;64.49;100063.87;715015;1203;113699;-73
2021/05/23 13:15:16;;;;;;;3.08;1.50;;;;;;;20.35;61.41;100065.38;715304;1182;115146;-73
2021/05/23 13:30:37;;;;;;;2.65;2.40;;;;;;;19.77;62.51;100063.22;712812;1180;113957;-73
2021/05/23 13:45:57;;;;;;;3.60;2.80;;;;;;;19.96;59.94;100077.61;712730;1202;114561;-73
2021/05/23 14:01:18;;;;;;;2.17;1.97;;;;;;;19.37;58.67;100087.83;712922;1202;114804;-74
2021/05/23 14:16:39;;;;;;;10.15;4.05;;;;;;;18.99;59.76;100090.09;712906;1202;114389;-74
2021/05/23 14:32:00;;;;;;;3.43;2.53;;;;;;;19.61;61.35;100088.33;712797;1179;114186;-75
2021/05/23 14:47:20;;;;;;;4.70;3.68;;;;;;;18.46;64.47;100102.77;715089;1194;114132;-74
2021/05/23 15:02:42;;;;;;;8.40;5.63;;;;;;;17.68;69.68;100158.25;712996;1189;114007;-76
2021/05/23 15:18:02;;;;;;;15.20;11.37;;;;;;;17.28;71.24;100176.30;713461;1203;114994;-74
2021/05/23 15:33:23;;;;;;;37.80;23.30;;;;;;;18.34;69.26;100162.70;712927;1180;114553;-75
2021/05/23 15:48:44;;;;;;;12.20;7.90;;;;;;;17.84;68.16;100181.10;713018;1202;114475;-75
2021/05/23 16:04:04;;;;;;;7.85;4.90;;;;;;;17.44;67.25;100181.41;712873;1196;114841;-75
2021/05/23 16:19:25;;;;;;;5.63;4.93;;;;;;;16.52;67.44;100194.80;713027;1202;114419;-75
2021/05/23 16:34:45;;;;;;;18.10;10.97;;;;;;;16.09;69.53;100193.41;713049;1203;114021;-74
2021/05/23 16:50:06;;;;;;;10.80;6.53;;;;;;;16.01;70.41;100203.19;713465;1180;114734;-75
2021/05/23 17:05:27;;;;;;;9.73;4.97;;;;;;;16.15;71.22;100220.98;713106;1184;114399;-75
2021/05/23 17:20:47;;;;;;;9.75;5.58;;;;;;;16.12;71.77;100221.34;712562;1178;114734;-75
2021/05/23 17:36:08;;;;;;;15.70;8.17;;;;;;;15.88;72.41;100232.87;712926;1180;114146;-74
2021/05/23 17:51:28;;;;;;;13.20;8.35;;;;;;;15.65;72.68;100241.48;713026;1178;114402;-76
2021/05/23 18:06:49;;;;;;;8.80;4.65;;;;;;;14.96;73.89;100263.03;713329;1202;114545;-74
2021/05/23 18:22:09;;;;;;;13.47;5.50;;;;;;;14.41;75.51;100296.91;713613;1202;115243;-77
2021/05/23 18:37:30;;;;;;;10.80;5.25;;;;;;;14.01;77.35;100337.12;712615;1202;114297;-72
2021/05/23 18:52:50;;;;;;;6.55;4.03;;;;;;;13.68;80.98;100358.81;712864;1191;115085;-72
2021/05/23 19:08:11;;;;;;;7.60;4.30;;;;;;;13.21;83.50;100377.49;713292;1202;114784;-77
2021/05/23 19:23:32;;;;;;;10.93;5.10;;;;;;;12.60;85.21;100388.55;712690;1202;115083;-75
2021/05/23 19:38:59;;;;;;;70.27;37.47;;;;;;;12.31;88.00;100415.80;713004;1205;114058;-76
2021/05/23 19:54:19;;;;;;;33.90;17.67;;;;;;;11.81;91.68;100452.78;713128;1184;115964;-75
2021/05/23 20:09:40;;;;;;;12.93;5.70;;;;;;;12.04;95.51;100466.50;712776;1182;114364;-77
2021/05/23 20:25:01;;;;;;;6.50;3.70;;;;;;;12.24;95.81;100461.22;712674;1202;115564;-78
2021/05/23 20:40:24;;;;;;;6.23;3.30;;;;;;;11.97;95.03;100470.69;712955;1201;114514;-78
2021/05/23 20:55:45;;;;;;;4.83;3.10;;;;;;;11.46;96.46;100476.01;713172;1203;114749;-77
2021/05/23 21:11:05;;;;;;;4.77;2.00;;;;;;;11.08;98.47;100519.59;713473;1180;113939;-77
2021/05/23 21:26:27;;;;;;;37.28;12.93;;;;;;;11.22;100.00;100542.04;713243;1202;115295;-78
2021/05/23 21:41:47;;;;;;;26.65;16.00;;;;;;;10.94;100.00;100554.07;713163;1177;114453;-78
2021/05/23 21:57:08;;;;;;;81.18;57.88;;;;;;;10.90;100.00;100560.55;713020;1202;114697;-75
2021/05/23 22:12:29;;;;;;;101.60;26.63;;;;;;;11.12;100.00;100578.75;713057;1203;115883;-79
2021/05/23 22:27:50;;;;;;;9.03;7.43;;;;;;;11.15;100.00;100596.88;713159;1203;114994;-79
2021/05/23 22:43:11;;;;;;;5.68;3.38;;;;;;;10.81;100.00;100591.87;713539;1205;114433;-78
2021/05/23 22:58:34;;;;;;;5.63;3.05;;;;;;;10.42;100.00;100615.20;713570;1182;114281;-79
2021/05/23 23:14:00;;;;;;;18.57;6.80;;;;;;;10.16;100.00;100633.88;712910;1206;115537;-79
2021/05/23 23:29:25;;;;;;;11.10;4.35;;;;;;;9.89;100.00;100647.40;712806;1181;115022;-81
2021/05/23 23:44:45;;;;;;;6.20;3.47;;;;;;;9.69;100.00;100662.08;712828;1203;114239;-81
